createdAt,value
2023-04-07T00:00:40.439Z,519.00
2023-04-07T00:01:40.565Z,520.00
2023-04-07T00:02:41.905Z,519.00
2023-04-07T00:03:40.590Z,519.00
2023-04-07T00:04:40.508Z,522.00
2023-04-07T00:05:40.463Z,518.00
2023-04-07T00:06:40.469Z,524.00
2023-04-07T00:07:52.463Z,517.00
2023-04-07T00:08:41.448Z,517.00
2023-04-07T00:09:40.408Z,518.00
2023-04-07T00:10:40.435Z,515.00
2023-04-07T00:11:40.402Z,521.00
2023-04-07T00:12:40.422Z,519.00
2023-04-07T00:13:40.395Z,525.00
2023-04-07T00:14:40.415Z,524.00
2023-04-07T00:15:40.442Z,524.00
2023-04-07T00:16:40.338Z,520.00
2023-04-07T00:17:40.435Z,516.00
2023-04-07T00:18:40.362Z,522.00
2023-04-07T00:19:40.330Z,519.00
2023-04-07T00:20:40.363Z,518.00
2023-04-07T00:21:40.361Z,523.00
2023-04-07T00:22:40.332Z,516.00
2023-04-07T00:23:40.292Z,523.00
2023-04-07T00:24:40.318Z,520.00
2023-04-07T00:25:40.300Z,520.00
2023-04-07T00:26:40.316Z,519.00
2023-04-07T00:27:40.295Z,522.00
2023-04-07T00:28:40.290Z,516.00
2023-04-07T00:29:40.253Z,521.00
2023-04-07T00:30:40.280Z,516.00
2023-04-07T00:31:40.403Z,525.00
2023-04-07T00:32:40.281Z,522.00
2023-04-07T00:33:40.297Z,512.00
2023-04-07T00:34:40.253Z,516.00
2023-04-07T00:35:40.262Z,525.00
2023-04-07T00:36:40.276Z,519.00
2023-04-07T00:37:40.273Z,517.00
2023-04-07T00:38:40.326Z,527.00
2023-04-07T00:39:40.322Z,520.00
2023-04-07T00:40:40.350Z,517.00
2023-04-07T00:41:40.391Z,520.00
2023-04-07T00:42:40.414Z,515.00
2023-04-07T00:43:40.399Z,520.00
2023-04-07T00:44:40.443Z,518.00
2023-04-07T00:45:40.507Z,519.00
2023-04-07T00:46:40.507Z,524.00
2023-04-07T00:47:40.558Z,521.00
2023-04-07T00:48:40.532Z,519.00
2023-04-07T00:49:40.525Z,522.00
2023-04-07T00:50:40.568Z,516.00
2023-04-07T00:51:40.567Z,513.00
2023-04-07T00:52:40.609Z,515.00
2023-04-07T00:53:40.637Z,519.00
2023-04-07T00:54:40.633Z,518.00
2023-04-07T00:55:40.656Z,521.00
2023-04-07T00:56:42.498Z,516.00
2023-04-07T00:57:40.646Z,521.00
2023-04-07T00:58:40.678Z,516.00
2023-04-07T00:59:40.692Z,524.00
2023-04-07T01:00:40.653Z,521.00
2023-04-07T01:01:40.768Z,516.00
2023-04-07T01:02:40.785Z,513.00
2023-04-07T01:03:40.867Z,517.00
2023-04-07T01:04:40.767Z,518.00
2023-04-07T01:05:40.611Z,515.00
2023-04-07T01:06:40.614Z,516.00
2023-04-07T01:07:40.609Z,523.00
2023-04-07T01:08:40.617Z,519.00
2023-04-07T01:09:40.602Z,519.00
2023-04-07T01:10:40.582Z,517.00
2023-04-07T01:11:40.594Z,515.00
2023-04-07T01:12:40.563Z,519.00
2023-04-07T01:13:40.539Z,522.00
2023-04-07T01:14:40.547Z,514.00
2023-04-07T01:15:40.530Z,514.00
2023-04-07T01:16:40.556Z,516.00
2023-04-07T01:17:40.570Z,515.00
2023-04-07T01:18:40.499Z,516.00
2023-04-07T01:19:40.527Z,518.00
2023-04-07T01:20:40.508Z,512.00
2023-04-07T01:21:40.498Z,515.00
2023-04-07T01:22:40.490Z,514.00
2023-04-07T01:23:40.482Z,519.00
2023-04-07T01:24:40.486Z,522.00
2023-04-07T01:25:40.472Z,519.00
2023-04-07T01:26:40.478Z,521.00
2023-04-07T01:27:40.469Z,519.00
2023-04-07T01:28:40.465Z,515.00
2023-04-07T01:29:40.505Z,525.00
2023-04-07T01:30:40.455Z,521.00
2023-04-07T01:31:40.556Z,516.00
2023-04-07T01:32:40.521Z,515.00
2023-04-07T01:33:40.408Z,514.00
2023-04-07T01:34:40.397Z,516.00
2023-04-07T01:35:40.399Z,511.00
2023-04-07T01:36:40.419Z,514.00
2023-04-07T01:37:40.363Z,521.00
2023-04-07T01:38:40.383Z,512.00
2023-04-07T01:39:40.353Z,519.00
2023-04-07T01:40:40.365Z,518.00
2023-04-07T01:41:40.376Z,514.00
2023-04-07T01:42:40.356Z,515.00
2023-04-07T01:43:41.674Z,519.00
2023-04-07T01:44:40.325Z,514.00
2023-04-07T01:45:40.329Z,513.00
2023-04-07T01:46:40.339Z,514.00
2023-04-07T01:47:40.353Z,521.00
2023-04-07T01:48:40.314Z,518.00
2023-04-07T01:49:40.316Z,517.00
2023-04-07T01:50:40.330Z,516.00
2023-04-07T01:51:40.314Z,523.00
2023-04-07T01:52:40.278Z,513.00
2023-04-07T01:53:40.345Z,519.00
2023-04-07T01:54:40.282Z,517.00
2023-04-07T01:55:40.295Z,520.00
2023-04-07T01:56:40.272Z,517.00
2023-04-07T01:57:40.265Z,520.00
2023-04-07T01:58:40.256Z,518.00
2023-04-07T01:59:40.240Z,522.00
2023-04-07T02:00:40.234Z,518.00
2023-04-07T02:01:40.529Z,519.00
2023-04-07T02:02:40.360Z,518.00
2023-04-07T02:03:40.267Z,516.00
2023-04-07T02:04:40.190Z,514.00
2023-04-07T02:05:40.347Z,523.00
2023-04-07T02:06:40.210Z,519.00
2023-04-07T02:07:40.231Z,517.00
2023-04-07T02:08:40.249Z,520.00
2023-04-07T02:09:40.293Z,516.00
2023-04-07T02:10:40.323Z,518.00
2023-04-07T02:11:40.343Z,518.00
2023-04-07T02:12:40.347Z,516.00
2023-04-07T02:13:40.387Z,516.00
2023-04-07T02:14:40.419Z,515.00
2023-04-07T02:15:40.452Z,521.00
2023-04-07T02:16:40.553Z,520.00
2023-04-07T02:17:40.526Z,518.00
2023-04-07T02:18:40.536Z,516.00
2023-04-07T02:19:40.566Z,520.00
2023-04-07T02:20:40.598Z,521.00
2023-04-07T02:21:40.582Z,526.00
2023-04-07T02:22:40.618Z,519.00
2023-04-07T02:23:40.659Z,520.00
2023-04-07T02:24:40.648Z,517.00
2023-04-07T02:25:40.714Z,521.00
2023-04-07T02:26:40.709Z,518.00
2023-04-07T02:27:40.758Z,514.00
2023-04-07T02:28:40.785Z,523.00
2023-04-07T02:29:40.805Z,512.00
2023-04-07T02:30:40.861Z,520.00
2023-04-07T02:31:40.924Z,514.00
2023-04-07T02:32:40.921Z,515.00
2023-04-07T02:33:40.981Z,516.00
2023-04-07T02:34:40.949Z,520.00
2023-04-07T02:35:40.990Z,518.00
2023-04-07T02:36:41.054Z,511.00
2023-04-07T02:37:41.070Z,514.00
2023-04-07T02:38:41.069Z,517.00
2023-04-07T02:39:41.094Z,517.00
2023-04-07T02:40:41.140Z,515.00
2023-04-07T02:41:41.162Z,517.00
2023-04-07T02:42:41.230Z,511.00
2023-04-07T02:43:41.215Z,514.00
2023-04-07T02:44:41.274Z,518.00
2023-04-07T02:45:41.331Z,517.00
2023-04-07T02:46:41.315Z,513.00
2023-04-07T02:47:41.386Z,514.00
2023-04-07T02:48:41.352Z,517.00
2023-04-07T02:49:41.446Z,518.00
2023-04-07T02:50:41.442Z,517.00
2023-04-07T02:51:41.482Z,519.00
2023-04-07T02:52:41.479Z,515.00
2023-04-07T02:53:41.509Z,516.00
2023-04-07T02:54:41.539Z,517.00
2023-04-07T02:55:41.621Z,517.00
2023-04-07T02:56:41.616Z,513.00
2023-04-07T02:57:41.662Z,518.00
2023-04-07T02:58:41.710Z,516.00
2023-04-07T02:59:41.731Z,519.00
2023-04-07T03:00:41.715Z,521.00
2023-04-07T03:01:41.814Z,510.00
2023-04-07T03:02:41.835Z,515.00
2023-04-07T03:03:41.928Z,517.00
2023-04-07T03:04:41.890Z,514.00
2023-04-07T03:05:41.876Z,519.00
2023-04-07T03:06:41.901Z,517.00
2023-04-07T03:07:41.971Z,516.00
2023-04-07T03:08:41.973Z,520.00
2023-04-07T03:09:42.030Z,518.00
2023-04-07T03:10:42.036Z,516.00
2023-04-07T03:11:42.063Z,518.00
2023-04-07T03:12:42.061Z,518.00
2023-04-07T03:13:42.112Z,517.00
2023-04-07T03:14:42.140Z,517.00
2023-04-07T03:15:42.209Z,513.00
2023-04-07T03:16:42.258Z,516.00
2023-04-07T03:17:42.262Z,516.00
2023-04-07T03:18:42.278Z,517.00
2023-04-07T03:19:42.326Z,518.00
2023-04-07T03:20:42.372Z,514.00
2023-04-07T03:21:42.401Z,519.00
2023-04-07T03:22:42.393Z,521.00
2023-04-07T03:23:42.439Z,517.00
2023-04-07T03:24:42.524Z,515.00
2023-04-07T03:25:42.504Z,516.00
2023-04-07T03:26:42.542Z,515.00
2023-04-07T03:27:42.562Z,511.00
2023-04-07T03:28:42.594Z,515.00
2023-04-07T03:29:42.633Z,517.00
2023-04-07T03:30:42.813Z,518.00
2023-04-07T03:31:42.700Z,515.00
2023-04-07T03:32:42.759Z,513.00
2023-04-07T03:33:42.749Z,516.00
2023-04-07T03:34:42.810Z,516.00
2023-04-07T03:35:42.843Z,512.00
2023-04-07T03:36:42.874Z,517.00
2023-04-07T03:37:42.942Z,517.00
2023-04-07T03:38:42.947Z,514.00
2023-04-07T03:39:42.971Z,516.00
2023-04-07T03:40:43.010Z,515.00
2023-04-07T03:41:43.003Z,516.00
2023-04-07T03:42:43.043Z,516.00
2023-04-07T03:43:43.113Z,513.00
2023-04-07T03:44:43.152Z,514.00
2023-04-07T03:45:43.176Z,514.00
2023-04-07T03:46:43.257Z,518.00
2023-04-07T03:47:43.297Z,519.00
2023-04-07T03:48:43.255Z,515.00
2023-04-07T03:49:43.307Z,516.00
2023-04-07T03:50:43.360Z,519.00
2023-04-07T03:51:43.389Z,512.00
2023-04-07T03:52:43.432Z,520.00
2023-04-07T03:53:43.426Z,513.00
2023-04-07T03:54:43.458Z,516.00
2023-04-07T03:55:43.513Z,517.00
2023-04-07T03:56:43.527Z,515.00
2023-04-07T03:57:43.590Z,515.00
2023-04-07T03:58:43.614Z,516.00
2023-04-07T03:59:43.679Z,516.00
2023-04-07T04:00:43.693Z,517.00
2023-04-07T04:01:43.718Z,513.00
2023-04-07T04:02:43.835Z,517.00
2023-04-07T04:03:43.924Z,518.00
2023-04-07T04:04:43.812Z,517.00
2023-04-07T04:05:43.821Z,517.00
2023-04-07T04:06:43.858Z,511.00
2023-04-07T04:07:44.893Z,517.00
2023-04-07T04:08:43.926Z,517.00
2023-04-07T04:09:43.957Z,519.00
2023-04-07T04:10:44.010Z,512.00
2023-04-07T04:11:44.053Z,516.00
2023-04-07T04:12:44.068Z,518.00
2023-04-07T04:13:44.074Z,513.00
2023-04-07T04:14:44.144Z,517.00
2023-04-07T04:15:44.213Z,519.00
2023-04-07T04:16:44.187Z,519.00
2023-04-07T04:17:44.321Z,517.00
2023-04-07T04:18:44.254Z,519.00
2023-04-07T04:19:44.295Z,517.00
2023-04-07T04:20:44.324Z,512.00
2023-04-07T04:21:44.335Z,514.00
2023-04-07T04:22:44.386Z,520.00
2023-04-07T04:23:44.418Z,514.00
2023-04-07T04:24:44.505Z,517.00
2023-04-07T04:25:44.525Z,508.00
2023-04-07T04:26:44.576Z,516.00
2023-04-07T04:27:44.582Z,516.00
2023-04-07T04:28:44.636Z,516.00
2023-04-07T04:29:44.679Z,515.00
2023-04-07T04:30:44.706Z,513.00
2023-04-07T04:31:44.852Z,513.00
2023-04-07T04:32:44.828Z,516.00
2023-04-07T04:33:44.791Z,508.00
2023-04-07T04:34:44.820Z,514.00
2023-04-07T04:35:44.834Z,514.00
2023-04-07T04:36:44.903Z,513.00
2023-04-07T04:37:44.908Z,511.00
2023-04-07T04:38:44.937Z,513.00
2023-04-07T04:39:44.991Z,516.00
2023-04-07T04:40:45.039Z,517.00
2023-04-07T04:41:45.020Z,511.00
2023-04-07T04:42:45.077Z,521.00
2023-04-07T04:43:45.336Z,516.00
2023-04-07T04:44:45.192Z,512.00
2023-04-07T04:45:45.166Z,515.00
2023-04-07T04:46:45.221Z,512.00
2023-04-07T04:47:45.278Z,509.00
2023-04-07T04:48:45.263Z,515.00
2023-04-07T04:49:45.300Z,516.00
2023-04-07T04:50:45.323Z,515.00
2023-04-07T04:51:45.374Z,513.00
2023-04-07T04:52:45.425Z,510.00
2023-04-07T04:53:45.457Z,511.00
2023-04-07T04:54:45.453Z,514.00
2023-04-07T04:55:45.526Z,517.00
2023-04-07T04:56:45.530Z,516.00
2023-04-07T04:57:45.527Z,516.00
2023-04-07T04:58:45.566Z,516.00
2023-04-07T04:59:45.641Z,512.00
2023-04-07T05:00:45.720Z,512.00
2023-04-07T05:01:45.783Z,513.00
2023-04-07T05:02:45.967Z,514.00
2023-04-07T05:03:45.879Z,515.00
2023-04-07T05:04:45.950Z,514.00
2023-04-07T05:05:45.840Z,514.00
2023-04-07T05:06:45.856Z,520.00
2023-04-07T05:07:45.899Z,517.00
2023-04-07T05:08:45.954Z,512.00
2023-04-07T05:09:45.932Z,517.00
2023-04-07T05:10:46.740Z,513.00
2023-04-07T05:11:46.024Z,514.00
2023-04-07T05:12:46.080Z,512.00
2023-04-07T05:13:46.062Z,509.00
2023-04-07T05:14:46.120Z,517.00
2023-04-07T05:15:46.150Z,512.00
2023-04-07T05:16:46.166Z,510.00
2023-04-07T05:17:46.250Z,513.00
2023-04-07T05:18:46.249Z,517.00
2023-04-07T05:19:46.268Z,510.00
2023-04-07T05:20:46.300Z,511.00
2023-04-07T05:21:46.330Z,519.00
2023-04-07T05:22:46.381Z,513.00
2023-04-07T05:23:46.412Z,521.00
2023-04-07T05:24:46.416Z,511.00
2023-04-07T05:25:46.477Z,519.00
2023-04-07T05:26:46.473Z,514.00
2023-04-07T05:27:46.524Z,508.00
2023-04-07T05:28:46.547Z,508.00
2023-04-07T05:29:46.581Z,511.00
2023-04-07T05:30:46.639Z,512.00
2023-04-07T05:31:46.693Z,511.00
2023-04-07T05:32:46.695Z,513.00
2023-04-07T05:33:46.692Z,509.00
2023-04-07T05:34:46.754Z,513.00
2023-04-07T05:35:46.807Z,513.00
2023-04-07T05:36:46.806Z,511.00
2023-04-07T05:37:46.841Z,514.00
2023-04-07T05:38:46.875Z,510.00
2023-04-07T05:39:46.910Z,514.00
2023-04-07T05:40:46.933Z,511.00
2023-04-07T05:41:46.944Z,511.00
2023-04-07T05:42:46.992Z,512.00
2023-04-07T05:43:47.034Z,512.00
2023-04-07T05:44:47.083Z,511.00
2023-04-07T05:45:47.122Z,508.00
2023-04-07T05:46:47.123Z,516.00
2023-04-07T05:47:47.216Z,509.00
2023-04-07T05:48:47.189Z,511.00
2023-04-07T05:49:47.280Z,508.00
2023-04-07T05:50:47.245Z,510.00
2023-04-07T05:51:48.733Z,509.00
2023-04-07T05:52:47.335Z,517.00
2023-04-07T05:53:47.319Z,516.00
2023-04-07T05:54:47.353Z,516.00
2023-04-07T05:55:47.427Z,508.00
2023-04-07T05:56:47.443Z,513.00
2023-04-07T05:57:47.471Z,511.00
2023-04-07T05:58:47.506Z,509.00
2023-04-07T05:59:47.516Z,510.00
2023-04-07T06:00:47.557Z,513.00
2023-04-07T06:01:47.648Z,512.00
2023-04-07T06:02:47.736Z,507.00
2023-04-07T06:03:47.818Z,509.00
2023-04-07T06:04:47.703Z,515.00
2023-04-07T06:05:47.727Z,508.00
2023-04-07T06:06:47.724Z,512.00
2023-04-07T06:07:47.788Z,507.00
2023-04-07T06:08:47.785Z,511.00
2023-04-07T06:09:47.827Z,513.00
2023-04-07T06:10:47.869Z,509.00
2023-04-07T06:11:47.888Z,510.00
2023-04-07T06:12:47.918Z,509.00
2023-04-07T06:13:48.357Z,509.00
2023-04-07T06:14:47.998Z,506.00
2023-04-07T06:15:48.014Z,509.00
2023-04-07T06:16:48.045Z,514.00
2023-04-07T06:17:48.145Z,519.00
2023-04-07T06:18:48.081Z,511.00
2023-04-07T06:19:48.130Z,511.00
2023-04-07T06:20:48.168Z,512.00
2023-04-07T06:21:48.189Z,512.00
2023-04-07T06:22:48.213Z,510.00
2023-04-07T06:23:48.394Z,511.00
2023-04-07T06:24:48.296Z,506.00
2023-04-07T06:25:48.310Z,509.00
2023-04-07T06:26:48.358Z,512.00
2023-04-07T06:27:48.391Z,505.00
2023-04-07T06:28:48.392Z,511.00
2023-04-07T06:29:48.445Z,511.00
2023-04-07T06:30:48.532Z,509.00
2023-04-07T06:31:48.518Z,509.00
2023-04-07T06:32:48.568Z,509.00
2023-04-07T06:33:48.763Z,514.00
2023-04-07T06:34:48.567Z,512.00
2023-04-07T06:35:48.621Z,512.00
2023-04-07T06:36:48.651Z,509.00
2023-04-07T06:37:49.484Z,510.00
2023-04-07T06:38:48.737Z,511.00
2023-04-07T06:39:48.769Z,505.00
2023-04-07T06:40:48.801Z,513.00
2023-04-07T06:41:48.818Z,515.00
2023-04-07T06:42:48.861Z,510.00
2023-04-07T06:43:49.129Z,511.00
2023-04-07T06:44:48.937Z,504.00
2023-04-07T06:45:48.993Z,508.00
2023-04-07T06:46:49.312Z,506.00
2023-04-07T06:47:49.072Z,509.00
2023-04-07T06:48:49.043Z,513.00
2023-04-07T06:49:49.070Z,511.00
2023-04-07T06:50:50.977Z,513.00
2023-04-07T06:51:49.174Z,511.00
2023-04-07T06:52:49.187Z,509.00
2023-04-07T06:53:49.453Z,515.00
2023-04-07T06:54:49.285Z,510.00
2023-04-07T06:55:49.290Z,504.00
2023-04-07T06:56:49.318Z,514.00
2023-04-07T06:57:49.339Z,506.00
2023-04-07T06:58:49.401Z,509.00
2023-04-07T06:59:49.427Z,506.00
2023-04-07T07:00:49.438Z,503.00
2023-04-07T07:01:49.555Z,505.00
2023-04-07T07:02:49.586Z,511.00
2023-04-07T07:03:49.761Z,510.00
2023-04-07T07:04:49.570Z,511.00
2023-04-07T07:05:50.541Z,511.00
2023-04-07T07:06:49.599Z,507.00
2023-04-07T07:07:49.650Z,511.00
2023-04-07T07:08:49.657Z,511.00
2023-04-07T07:09:49.707Z,512.00
2023-04-07T07:10:49.777Z,507.00
2023-04-07T07:11:49.736Z,517.00
2023-04-07T07:12:49.777Z,504.00
2023-04-07T07:13:50.048Z,505.00
2023-04-07T07:14:49.850Z,510.00
2023-04-07T07:15:49.935Z,506.00
2023-04-07T07:16:49.866Z,513.00
2023-04-07T07:17:49.935Z,503.00
2023-04-07T07:18:49.923Z,504.00
2023-04-07T07:19:49.968Z,508.00
2023-04-07T07:20:49.983Z,510.00
2023-04-07T07:21:49.994Z,511.00
2023-04-07T07:22:50.036Z,509.00
2023-04-07T07:23:50.332Z,513.00
2023-04-07T07:24:50.118Z,512.00
2023-04-07T07:25:50.113Z,506.00
2023-04-07T07:26:50.150Z,507.00
2023-04-07T07:27:50.183Z,504.00
2023-04-07T07:28:50.174Z,509.00
2023-04-07T07:29:50.199Z,510.00
2023-04-07T07:30:50.285Z,506.00
2023-04-07T07:31:50.264Z,505.00
2023-04-07T07:32:50.285Z,513.00
2023-04-07T07:33:50.640Z,509.00
2023-04-07T07:34:50.343Z,504.00
2023-04-07T07:35:50.384Z,504.00
2023-04-07T07:36:50.354Z,508.00
2023-04-07T07:37:50.406Z,512.00
2023-04-07T07:38:50.406Z,507.00
2023-04-07T07:39:50.415Z,509.00
2023-04-07T07:40:50.441Z,509.00
2023-04-07T07:41:50.445Z,514.00
2023-04-07T07:42:50.473Z,503.00
2023-04-07T07:43:50.516Z,511.00
2023-04-07T07:44:50.497Z,504.00
2023-04-07T07:45:50.532Z,512.00
2023-04-07T07:46:50.710Z,517.00
2023-04-07T07:47:50.571Z,509.00
2023-04-07T07:48:50.597Z,504.00
2023-04-07T07:49:50.616Z,511.00
2023-04-07T07:50:50.605Z,511.00
2023-04-07T07:51:50.635Z,509.00
2023-04-07T07:52:50.648Z,512.00
2023-04-07T07:53:50.664Z,507.00
2023-04-07T07:54:50.709Z,509.00
2023-04-07T07:55:50.707Z,511.00
2023-04-07T07:56:50.725Z,506.00
2023-04-07T07:57:50.736Z,511.00
2023-04-07T07:58:50.768Z,507.00
2023-04-07T07:59:50.814Z,510.00
2023-04-07T08:00:50.790Z,508.00
2023-04-07T08:01:50.881Z,510.00
2023-04-07T08:02:50.915Z,512.00
2023-04-07T08:03:51.233Z,514.00
2023-04-07T08:04:50.918Z,505.00
2023-04-07T08:05:50.898Z,510.00
2023-04-07T08:06:50.904Z,508.00
2023-04-07T08:07:53.317Z,504.00
2023-04-07T08:08:50.934Z,509.00
2023-04-07T08:09:50.910Z,510.00
2023-04-07T08:10:50.912Z,512.00
2023-04-07T08:11:50.883Z,509.00
2023-04-07T08:12:50.868Z,507.00
2023-04-07T08:13:50.894Z,511.00
2023-04-07T08:14:50.923Z,513.00
2023-04-07T08:15:50.966Z,509.00
2023-04-07T08:16:50.883Z,511.00
2023-04-07T08:17:50.896Z,514.00
2023-04-07T08:18:50.857Z,509.00
2023-04-07T08:19:50.838Z,511.00
2023-04-07T08:20:50.837Z,513.00
2023-04-07T08:21:50.845Z,512.00
2023-04-07T08:22:50.811Z,510.00
2023-04-07T08:23:51.071Z,510.00
2023-04-07T08:24:50.816Z,514.00
2023-04-07T08:25:50.792Z,514.00
2023-04-07T08:26:50.757Z,516.00
2023-04-07T08:27:50.779Z,516.00
2023-04-07T08:28:50.786Z,511.00
2023-04-07T08:29:50.745Z,517.00
2023-04-07T08:30:50.760Z,518.00
2023-04-07T08:31:50.773Z,508.00
2023-04-07T08:32:50.799Z,512.00
2023-04-07T08:33:50.750Z,514.00
2023-04-07T08:34:50.729Z,518.00
2023-04-07T08:35:50.748Z,509.00
2023-04-07T08:36:50.706Z,515.00
2023-04-07T08:37:50.676Z,512.00
2023-04-07T08:38:50.718Z,508.00
2023-04-07T08:39:50.683Z,511.00
2023-04-07T08:40:50.709Z,510.00
2023-04-07T08:41:50.725Z,513.00
2023-04-07T08:42:50.722Z,510.00
2023-04-07T08:43:50.750Z,512.00
2023-04-07T08:44:50.658Z,509.00
2023-04-07T08:45:51.765Z,508.00
2023-04-07T08:46:50.653Z,509.00
2023-04-07T08:47:50.646Z,510.00
2023-04-07T08:48:50.651Z,511.00
2023-04-07T08:49:50.611Z,511.00
2023-04-07T08:50:50.617Z,517.00
2023-04-07T08:51:50.595Z,517.00
2023-04-07T08:52:51.519Z,516.00
2023-04-07T08:53:50.571Z,515.00
2023-04-07T08:54:50.580Z,517.00
2023-04-07T08:55:50.560Z,516.00
2023-04-07T08:56:50.617Z,515.00
2023-04-07T08:57:50.578Z,510.00
2023-04-07T08:58:50.575Z,515.00
2023-04-07T08:59:50.576Z,511.00
2023-04-07T09:00:50.588Z,510.00
2023-04-07T09:01:50.614Z,513.00
2023-04-07T09:02:50.593Z,513.00
2023-04-07T09:03:50.772Z,509.00
2023-04-07T09:04:50.522Z,519.00
2023-04-07T09:05:50.522Z,510.00
2023-04-07T09:06:50.510Z,511.00
2023-04-07T09:07:50.504Z,511.00
2023-04-07T09:08:50.473Z,512.00
2023-04-07T09:09:50.458Z,513.00
2023-04-07T09:10:50.485Z,511.00
2023-04-07T09:11:50.467Z,509.00
2023-04-07T09:12:50.513Z,507.00
2023-04-07T09:13:50.436Z,507.00
2023-04-07T09:14:50.431Z,509.00
2023-04-07T09:15:50.454Z,513.00
2023-04-07T09:16:50.475Z,507.00
2023-04-07T09:17:50.423Z,511.00
2023-04-07T09:18:50.406Z,509.00
2023-04-07T09:19:50.422Z,508.00
2023-04-07T09:20:50.414Z,508.00
2023-04-07T09:21:50.454Z,506.00
2023-04-07T09:22:50.368Z,510.00
2023-04-07T09:23:50.581Z,510.00
2023-04-07T09:24:50.342Z,508.00
2023-04-07T09:25:50.359Z,505.00
2023-04-07T09:26:50.352Z,510.00
2023-04-07T09:27:50.349Z,510.00
2023-04-07T09:28:50.333Z,513.00
2023-04-07T09:29:50.364Z,509.00
2023-04-07T09:30:50.336Z,508.00
2023-04-07T09:31:51.049Z,510.00
2023-04-07T09:32:50.367Z,507.00
2023-04-07T09:33:50.359Z,508.00
2023-04-07T09:34:50.321Z,507.00
2023-04-07T09:35:50.329Z,507.00
2023-04-07T09:36:50.312Z,508.00
2023-04-07T09:37:50.275Z,509.00
2023-04-07T09:38:50.260Z,505.00
2023-04-07T09:39:50.259Z,509.00
2023-04-07T09:40:50.244Z,510.00
2023-04-07T09:41:50.273Z,504.00
2023-04-07T09:42:50.258Z,513.00
2023-04-07T09:43:50.462Z,512.00
2023-04-07T09:44:50.233Z,509.00
2023-04-07T09:45:50.363Z,512.00
2023-04-07T09:46:50.216Z,509.00
2023-04-07T09:47:50.220Z,506.00
2023-04-07T09:48:50.198Z,508.00
2023-04-07T09:49:50.195Z,513.00
2023-04-07T09:50:50.199Z,510.00
2023-04-07T09:51:50.196Z,508.00
2023-04-07T09:52:50.214Z,511.00
2023-04-07T09:53:51.229Z,511.00
2023-04-07T09:54:50.359Z,510.00
2023-04-07T09:55:50.447Z,508.00
2023-04-07T09:56:51.065Z,513.00
2023-04-07T09:57:50.571Z,513.00
2023-04-07T09:58:50.637Z,510.00
2023-04-07T09:59:50.691Z,509.00
2023-04-07T10:00:50.791Z,509.00
2023-04-07T10:01:50.957Z,506.00
2023-04-07T10:02:50.932Z,512.00
2023-04-07T10:03:51.477Z,508.00
2023-04-07T10:04:51.018Z,509.00
2023-04-07T10:05:51.032Z,506.00
2023-04-07T10:06:51.118Z,507.00
2023-04-07T10:07:51.197Z,516.00
2023-04-07T10:08:51.243Z,509.00
2023-04-07T10:09:51.289Z,506.00
2023-04-07T10:10:51.364Z,514.00
2023-04-07T10:11:51.405Z,513.00
2023-04-07T10:12:51.467Z,506.00
2023-04-07T10:13:51.521Z,510.00
2023-04-07T10:14:51.597Z,508.00
2023-04-07T10:15:51.635Z,512.00
2023-04-07T10:16:51.719Z,510.00
2023-04-07T10:17:51.906Z,511.00
2023-04-07T10:18:51.814Z,510.00
2023-04-07T10:19:51.884Z,508.00
2023-04-07T10:20:51.942Z,511.00
2023-04-07T10:21:51.986Z,509.00
2023-04-07T10:22:52.056Z,508.00
2023-04-07T10:23:52.102Z,508.00
2023-04-07T10:24:52.146Z,509.00
2023-04-07T10:25:52.204Z,511.00
2023-04-07T10:26:52.241Z,506.00
2023-04-07T10:27:52.306Z,513.00
2023-04-07T10:28:52.363Z,506.00
2023-04-07T10:29:52.411Z,501.00
2023-04-07T10:30:52.448Z,507.00
2023-04-07T10:31:52.529Z,506.00
2023-04-07T10:32:52.628Z,510.00
2023-04-07T10:33:52.877Z,508.00
2023-04-07T10:34:52.668Z,510.00
2023-04-07T10:35:52.753Z,506.00
2023-04-07T10:36:52.766Z,510.00
2023-04-07T10:37:52.839Z,512.00
2023-04-07T10:38:52.841Z,512.00
2023-04-07T10:39:52.910Z,511.00
2023-04-07T10:40:52.919Z,512.00
2023-04-07T10:41:52.999Z,508.00
2023-04-07T10:42:53.049Z,506.00
2023-04-07T10:43:53.105Z,508.00
2023-04-07T10:44:53.146Z,509.00
2023-04-07T10:45:53.219Z,508.00
2023-04-07T10:46:53.244Z,507.00
2023-04-07T10:47:53.369Z,509.00
2023-04-07T10:48:53.327Z,511.00
2023-04-07T10:49:53.365Z,506.00
2023-04-07T10:50:53.411Z,511.00
2023-04-07T10:51:53.436Z,510.00
2023-04-07T10:52:53.494Z,514.00
2023-04-07T10:53:53.571Z,511.00
2023-04-07T10:54:53.553Z,508.00
2023-04-07T10:55:53.620Z,508.00
2023-04-07T10:56:53.640Z,510.00
2023-04-07T10:57:53.738Z,508.00
2023-04-07T10:58:53.765Z,505.00
2023-04-07T10:59:53.823Z,514.00
2023-04-07T11:00:53.838Z,509.00
2023-04-07T11:01:53.926Z,507.00
2023-04-07T11:02:54.074Z,508.00
2023-04-07T11:03:54.110Z,508.00
2023-04-07T11:04:54.156Z,504.00
2023-04-07T11:05:54.064Z,509.00
2023-04-07T11:06:54.109Z,506.00
2023-04-07T11:07:54.121Z,508.00
2023-04-07T11:08:54.198Z,505.00
2023-04-07T11:09:54.242Z,503.00
2023-04-07T11:10:54.247Z,507.00
2023-04-07T11:11:54.259Z,508.00
2023-04-07T11:12:54.340Z,506.00
2023-04-07T11:13:54.354Z,510.00
2023-04-07T11:14:54.376Z,508.00
2023-04-07T11:15:54.469Z,509.00
2023-04-07T11:16:54.484Z,505.00
2023-04-07T11:17:54.562Z,507.00
2023-04-07T11:18:54.537Z,507.00
2023-04-07T11:19:54.594Z,504.00
2023-04-07T11:20:54.641Z,510.00
2023-04-07T11:21:54.654Z,512.00
2023-04-07T11:22:54.708Z,505.00
2023-04-07T11:23:54.725Z,503.00
2023-04-07T11:24:54.736Z,506.00
2023-04-07T11:25:54.807Z,503.00
2023-04-07T11:26:54.814Z,506.00
2023-04-07T11:27:54.856Z,512.00
2023-04-07T11:28:54.943Z,504.00
2023-04-07T11:29:54.905Z,506.00
2023-04-07T11:30:55.034Z,510.00
2023-04-07T11:31:55.018Z,508.00
2023-04-07T11:32:55.043Z,504.00
2023-04-07T11:33:55.045Z,504.00
2023-04-07T11:34:55.111Z,506.00
2023-04-07T11:35:55.200Z,511.00
2023-04-07T11:36:55.196Z,506.00
2023-04-07T11:37:55.229Z,508.00
2023-04-07T11:38:55.235Z,509.00
2023-04-07T11:39:55.277Z,506.00
2023-04-07T11:40:55.332Z,511.00
2023-04-07T11:41:55.344Z,505.00
2023-04-07T11:42:55.368Z,505.00
2023-04-07T11:43:55.408Z,506.00
2023-04-07T11:44:55.448Z,504.00
2023-04-07T11:45:55.462Z,509.00
2023-04-07T11:46:55.585Z,511.00
2023-04-07T11:47:55.613Z,503.00
2023-04-07T11:48:55.549Z,507.00
2023-04-07T11:49:55.593Z,506.00
2023-04-07T11:50:55.589Z,514.00
2023-04-07T11:51:55.659Z,508.00
2023-04-07T11:52:55.686Z,509.00
2023-04-07T11:53:55.723Z,508.00
2023-04-07T11:54:55.760Z,507.00
2023-04-07T11:55:55.806Z,508.00
2023-04-07T11:56:55.853Z,513.00
2023-04-07T11:57:55.858Z,510.00
2023-04-07T11:58:55.900Z,506.00
2023-04-07T11:59:55.911Z,505.00
2023-04-07T12:00:56.603Z,503.00
2023-04-07T12:01:57.868Z,506.00
2023-04-07T12:02:56.074Z,510.00
2023-04-07T12:03:56.161Z,508.00
2023-04-07T12:04:56.104Z,512.00
2023-04-07T12:05:56.096Z,511.00
2023-04-07T12:06:56.131Z,511.00
2023-04-07T12:07:56.126Z,507.00
2023-04-07T12:08:56.181Z,511.00
2023-04-07T12:09:56.204Z,506.00
2023-04-07T12:10:56.225Z,506.00
2023-04-07T12:11:56.267Z,504.00
2023-04-07T12:12:58.177Z,509.00
2023-04-07T12:13:56.276Z,512.00
2023-04-07T12:14:56.254Z,511.00
2023-04-07T12:15:56.239Z,507.00
2023-04-07T12:16:56.422Z,509.00
2023-04-07T12:17:56.265Z,509.00
2023-04-07T12:18:56.224Z,508.00
2023-04-07T12:19:56.250Z,507.00
2023-04-07T12:20:56.225Z,509.00
2023-04-07T12:21:56.205Z,507.00
2023-04-07T12:22:56.212Z,507.00
2023-04-07T12:23:56.226Z,510.00
2023-04-07T12:24:56.210Z,509.00
2023-04-07T12:25:56.220Z,509.00
2023-04-07T12:26:56.176Z,512.00
2023-04-07T12:27:56.225Z,504.00
2023-04-07T12:28:56.154Z,511.00